Airfield :
LOGIN :

Register | Disclaimer

   EN    FR    IT 

 










Legend :    VFR   Marginal VFR   IFR   Intensive IFR   Very Intensive IFR
Visi :
Ceiling :
>= 8 km
>= 3000ft
5 to 8 km
1000 to 3000 ft
1500m to 5 km
500 to 1000 ft
800 to 1500m
200 to 500 ft
< 800m
< 200 ft
Symbols :   Thunderstorms  Fog  Heavy snow  Heavy precipitations  Wind > 20 kt
SIGMETs :     Misc.  Thunderstorms  Icing  Turbulence  Mountain Waves  Volcanic Ashes






- Airport Elevation : 218 ft
- IATA code : LBG


LFPB - Paris / Le Bourget

CURRENT METAR :
  • 121400Z AUTO 08007KT 020V150 CAVOK 35/16 Q1011 TEMPO SCT070CB

EXPIRED METARs :
  • 121330Z AUTO 09007KT 050V140 CAVOK 35/16 Q1011 TEMPO SCT070CB
  • 121300Z AUTO 10008KT 040V170 CAVOK 34/16 Q1011 BECMG SCT070TCU
  • 121230Z AUTO 12010KT 070V160 CAVOK 34/16 Q1012 BECMG SCT070TCU
  • 121200Z AUTO 10007KT 050V140 CAVOK 33/16 Q1012 BECMG SCT070TCU
  • 121130Z AUTO 10008KT 060V170 CAVOK 33/17 Q1012 TEMPO SCT070CB

TAF TAF LFPB
Valid from the 12 at 12:00 until the 13 at 12:00 UTC


121100Z 1212/1312 12010KT CAVOK
BECMG 1213/1215 SCT070TCU
TEMPO 1215/1302 SCT070CB
TEMPO 1216/1301 2500 TSRA BKN070CB
PROB30
TEMPO 1217/1223 VRB15G35KT 1500 TSGR BKN060CB
PROB30
TEMPO 1310/1312 18015G25KT 3000 TSRA SCT050CB
ATIS : +33 1 48 62 43 92



MET'MAP, your aeronautical weather chart ! - Copyright ORBIFLY December 2007 - Disclaimer

ORBIFLY MET'MAP TEAM :

Programming & Development : Alexandra Zaïnal
Concept & original design : Baudouin d'Aumeries
Assistance for programming : Marc-Olivier Méhu
Technical & hardware support : Manuel Goepfert

Contact : metmap@orbifly.com




SOURCES & CREDITS :

   NOAA